sensor_id;sensor_type;location;lat;lon;timestamp;temperature;humidity
12557;DHT22;6344;49.932;8.308;2023-11-21T00:01:16;8.60;99.90
12557;DHT22;6344;49.932;8.308;2023-11-21T00:03:42;8.60;99.90
12557;DHT22;6344;49.932;8.308;2023-11-21T00:06:10;8.60;99.90
12557;DHT22;6344;49.932;8.308;2023-11-21T00:08:37;8.60;99.90
12557;DHT22;6344;49.932;8.308;2023-11-21T00:11:04;8.60;99.90
12557;DHT22;6344;49.932;8.308;2023-11-21T00:13:31;8.70;99.90
12557;DHT22;6344;49.932;8.308;2023-11-21T00:15:58;8.60;99.90
12557;DHT22;6344;49.932;8.308;2023-11-21T00:18:25;8.70;99.90
12557;DHT22;6344;49.932;8.308;2023-11-21T00:20:51;8.70;99.90
12557;DHT22;6344;49.932;8.308;2023-11-21T00:23:19;8.70;99.90
12557;DHT22;6344;49.932;8.308;2023-11-21T00:25:46;8.70;99.90
12557;DHT22;6344;49.932;8.308;2023-11-21T00:28:13;8.70;99.90
12557;DHT22;6344;49.932;8.308;2023-11-21T00:30:40;8.70;99.90
12557;DHT22;6344;49.932;8.308;2023-11-21T00:33:07;8.70;99.90
12557;DHT22;6344;49.932;8.308;2023-11-21T00:35:34;8.70;99.90
12557;DHT22;6344;49.932;8.308;2023-11-21T00:38:00;8.70;99.90
12557;DHT22;6344;49.932;8.308;2023-11-21T00:40:30;8.70;99.90
12557;DHT22;6344;49.932;8.308;2023-11-21T00:42:58;8.70;99.90
12557;DHT22;6344;49.932;8.308;2023-11-21T00:45:25;8.60;99.90
12557;DHT22;6344;49.932;8.308;2023-11-21T00:47:51;8.70;99.90
12557;DHT22;6344;49.932;8.308;2023-11-21T00:50:18;8.70;99.90
12557;DHT22;6344;49.932;8.308;2023-11-21T00:52:45;8.70;99.90
12557;DHT22;6344;49.932;8.308;2023-11-21T00:55:12;8.70;99.90
12557;DHT22;6344;49.932;8.308;2023-11-21T00:57:40;8.70;99.90
12557;DHT22;6344;49.932;8.308;2023-11-21T01:00:07;8.70;99.90
12557;DHT22;6344;49.932;8.308;2023-11-21T01:02:38;8.70;99.90
12557;DHT22;6344;49.932;8.308;2023-11-21T01:05:05;8.80;99.90
12557;DHT22;6344;49.932;8.308;2023-11-21T01:07:33;8.70;99.90
12557;DHT22;6344;49.932;8.308;2023-11-21T01:10:02;8.70;99.90
12557;DHT22;6344;49.932;8.308;2023-11-21T01:12:31;8.70;99.90
12557;DHT22;6344;49.932;8.308;2023-11-21T01:14:59;8.70;99.90
12557;DHT22;6344;49.932;8.308;2023-11-21T01:17:26;8.70;99.90
12557;DHT22;6344;49.932;8.308;2023-11-21T01:19:53;8.70;99.90
12557;DHT22;6344;49.932;8.308;2023-11-21T01:22:19;8.70;99.90
12557;DHT22;6344;49.932;8.308;2023-11-21T01:24:51;8.70;99.90
12557;DHT22;6344;49.932;8.308;2023-11-21T01:27:18;8.70;99.90
12557;DHT22;6344;49.932;8.308;2023-11-21T01:29:45;8.70;99.90
12557;DHT22;6344;49.932;8.308;2023-11-21T01:32:13;8.70;99.90
12557;DHT22;6344;49.932;8.308;2023-11-21T01:34:39;8.70;99.90
12557;DHT22;6344;49.932;8.308;2023-11-21T01:37:06;8.70;99.90
12557;DHT22;6344;49.932;8.308;2023-11-21T01:39:33;8.70;99.90
12557;DHT22;6344;49.932;8.308;2023-11-21T01:41:59;8.60;99.90
12557;DHT22;6344;49.932;8.308;2023-11-21T01:44:26;8.70;99.90
12557;DHT22;6344;49.932;8.308;2023-11-21T01:46:53;8.70;99.90
12557;DHT22;6344;49.932;8.308;2023-11-21T01:49:21;8.70;99.90
12557;DHT22;6344;49.932;8.308;2023-11-21T01:51:49;8.70;99.90
12557;DHT22;6344;49.932;8.308;2023-11-21T01:54:17;8.70;99.90
12557;DHT22;6344;49.932;8.308;2023-11-21T01:56:46;8.70;99.90
12557;DHT22;6344;49.932;8.308;2023-11-21T01:59:15;8.70;99.90
12557;DHT22;6344;49.932;8.308;2023-11-21T02:01:44;8.70;99.90
12557;DHT22;6344;49.932;8.308;2023-11-21T02:04:12;8.70;99.90
12557;DHT22;6344;49.932;8.308;2023-11-21T02:06:40;8.60;99.90
12557;DHT22;6344;49.932;8.308;2023-11-21T02:09:06;8.70;99.90
12557;DHT22;6344;49.932;8.308;2023-11-21T02:11:34;8.70;99.90
12557;DHT22;6344;49.932;8.308;2023-11-21T02:14:01;8.70;99.90
12557;DHT22;6344;49.932;8.308;2023-11-21T02:16:28;8.70;99.90
12557;DHT22;6344;49.932;8.308;2023-11-21T02:18:57;8.70;99.90
12557;DHT22;6344;49.932;8.308;2023-11-21T02:21:25;8.70;99.90
12557;DHT22;6344;49.932;8.308;2023-11-21T02:23:53;8.70;99.90
12557;DHT22;6344;49.932;8.308;2023-11-21T02:26:20;8.70;99.90
12557;DHT22;6344;49.932;8.308;2023-11-21T02:28:47;8.70;99.90
12557;DHT22;6344;49.932;8.308;2023-11-21T02:31:14;8.70;99.90
12557;DHT22;6344;49.932;8.308;2023-11-21T02:33:41;8.70;99.90
12557;DHT22;6344;49.932;8.308;2023-11-21T02:36:09;8.70;99.90
12557;DHT22;6344;49.932;8.308;2023-11-21T02:38:36;8.70;99.90
12557;DHT22;6344;49.932;8.308;2023-11-21T02:41:04;8.70;99.90
12557;DHT22;6344;49.932;8.308;2023-11-21T02:43:31;8.80;99.90
12557;DHT22;6344;49.932;8.308;2023-11-21T02:45:57;8.80;99.90
12557;DHT22;6344;49.932;8.308;2023-11-21T02:48:24;8.80;99.90
12557;DHT22;6344;49.932;8.308;2023-11-21T02:50:51;8.80;99.90
12557;DHT22;6344;49.932;8.308;2023-11-21T02:53:18;8.80;99.90
12557;DHT22;6344;49.932;8.308;2023-11-21T02:55:45;8.80;99.90
12557;DHT22;6344;49.932;8.308;2023-11-21T02:58:13;8.70;99.90
12557;DHT22;6344;49.932;8.308;2023-11-21T03:00:40;8.70;99.90
12557;DHT22;6344;49.932;8.308;2023-11-21T03:03:07;8.70;99.90
12557;DHT22;6344;49.932;8.308;2023-11-21T03:05:34;8.70;99.90
12557;DHT22;6344;49.932;8.308;2023-11-21T03:08:02;8.70;99.90
12557;DHT22;6344;49.932;8.308;2023-11-21T03:10:29;8.60;99.90
12557;DHT22;6344;49.932;8.308;2023-11-21T03:12:56;8.60;99.90
12557;DHT22;6344;49.932;8.308;2023-11-21T03:15:24;8.60;99.90
12557;DHT22;6344;49.932;8.308;2023-11-21T03:17:51;8.60;99.90
12557;DHT22;6344;49.932;8.308;2023-11-21T03:20:17;8.50;99.90
12557;DHT22;6344;49.932;8.308;2023-11-21T03:22:44;8.50;99.90
12557;DHT22;6344;49.932;8.308;2023-11-21T03:25:11;8.40;99.90
12557;DHT22;6344;49.932;8.308;2023-11-21T03:27:38;8.40;99.90
12557;DHT22;6344;49.932;8.308;2023-11-21T03:30:07;8.40;99.90
12557;DHT22;6344;49.932;8.308;2023-11-21T03:32:36;8.40;99.90
12557;DHT22;6344;49.932;8.308;2023-11-21T03:35:03;8.30;99.90
12557;DHT22;6344;49.932;8.308;2023-11-21T03:37:31;8.30;99.90
12557;DHT22;6344;49.932;8.308;2023-11-21T03:39:58;8.30;99.90
12557;DHT22;6344;49.932;8.308;2023-11-21T03:42:24;8.30;99.90
12557;DHT22;6344;49.932;8.308;2023-11-21T03:44:52;8.30;99.90
12557;DHT22;6344;49.932;8.308;2023-11-21T03:47:18;8.30;99.90
12557;DHT22;6344;49.932;8.308;2023-11-21T03:49:47;8.30;99.90
12557;DHT22;6344;49.932;8.308;2023-11-21T03:52:13;8.30;99.90
12557;DHT22;6344;49.932;8.308;2023-11-21T03:54:40;8.20;99.90
12557;DHT22;6344;49.932;8.308;2023-11-21T03:57:08;8.20;99.90
12557;DHT22;6344;49.932;8.308;2023-11-21T03:59:35;8.20;99.90
12557;DHT22;6344;49.932;8.308;2023-11-21T04:02:02;8.20;99.90
12557;DHT22;6344;49.932;8.308;2023-11-21T04:04:29;8.20;99.90
12557;DHT22;6344;49.932;8.308;2023-11-21T04:06:57;8.20;99.90
12557;DHT22;6344;49.932;8.308;2023-11-21T04:09:23;8.20;99.90
12557;DHT22;6344;49.932;8.308;2023-11-21T04:11:50;8.20;99.90
12557;DHT22;6344;49.932;8.308;2023-11-21T04:14:17;8.20;99.90
12557;DHT22;6344;49.932;8.308;2023-11-21T04:16:44;8.20;99.90
12557;DHT22;6344;49.932;8.308;2023-11-21T04:19:10;8.30;99.90
12557;DHT22;6344;49.932;8.308;2023-11-21T04:21:40;8.30;99.90
12557;DHT22;6344;49.932;8.308;2023-11-21T04:24:08;8.30;99.90
12557;DHT22;6344;49.932;8.308;2023-11-21T04:26:36;8.30;99.90
12557;DHT22;6344;49.932;8.308;2023-11-21T04:29:03;8.30;99.90
12557;DHT22;6344;49.932;8.308;2023-11-21T04:31:30;8.30;99.90
12557;DHT22;6344;49.932;8.308;2023-11-21T04:33:57;8.30;99.90
12557;DHT22;6344;49.932;8.308;2023-11-21T04:36:23;8.30;99.90
12557;DHT22;6344;49.932;8.308;2023-11-21T04:38:50;8.40;99.90
12557;DHT22;6344;49.932;8.308;2023-11-21T04:41:18;8.40;99.90
12557;DHT22;6344;49.932;8.308;2023-11-21T04:43:45;8.40;99.90
12557;DHT22;6344;49.932;8.308;2023-11-21T04:46:11;8.40;99.90
12557;DHT22;6344;49.932;8.308;2023-11-21T04:48:38;8.40;99.90
12557;DHT22;6344;49.932;8.308;2023-11-21T04:51:05;8.40;99.90
12557;DHT22;6344;49.932;8.308;2023-11-21T04:53:32;8.40;99.90
12557;DHT22;6344;49.932;8.308;2023-11-21T04:56:00;8.50;99.90
12557;DHT22;6344;49.932;8.308;2023-11-21T04:58:28;8.40;99.90
12557;DHT22;6344;49.932;8.308;2023-11-21T05:00:54;8.50;99.90
12557;DHT22;6344;49.932;8.308;2023-11-21T05:03:21;8.50;99.90
12557;DHT22;6344;49.932;8.308;2023-11-21T05:05:49;8.50;99.90
12557;DHT22;6344;49.932;8.308;2023-11-21T05:08:15;8.50;99.90
12557;DHT22;6344;49.932;8.308;2023-11-21T05:10:42;8.50;99.90
12557;DHT22;6344;49.932;8.308;2023-11-21T05:13:09;8.50;99.90
12557;DHT22;6344;49.932;8.308;2023-11-21T05:15:37;8.50;99.90
12557;DHT22;6344;49.932;8.308;2023-11-21T05:18:04;8.50;99.90
12557;DHT22;6344;49.932;8.308;2023-11-21T05:20:31;8.50;99.90
12557;DHT22;6344;49.932;8.308;2023-11-21T05:22:58;8.50;99.90
12557;DHT22;6344;49.932;8.308;2023-11-21T05:25:25;8.50;99.90
12557;DHT22;6344;49.932;8.308;2023-11-21T05:27:52;8.50;99.90
12557;DHT22;6344;49.932;8.308;2023-11-21T05:30:21;8.50;99.90
12557;DHT22;6344;49.932;8.308;2023-11-21T05:32:49;8.40;99.90
12557;DHT22;6344;49.932;8.308;2023-11-21T05:35:16;8.40;99.90
12557;DHT22;6344;49.932;8.308;2023-11-21T05:37:43;8.50;99.90
12557;DHT22;6344;49.932;8.308;2023-11-21T05:40:10;8.40;99.90
12557;DHT22;6344;49.932;8.308;2023-11-21T05:42:39;8.40;99.90
12557;DHT22;6344;49.932;8.308;2023-11-21T05:45:06;8.40;99.90
12557;DHT22;6344;49.932;8.308;2023-11-21T05:47:37;8.40;99.90
12557;DHT22;6344;49.932;8.308;2023-11-21T05:50:07;8.40;99.90
12557;DHT22;6344;49.932;8.308;2023-11-21T05:52:37;8.40;99.90
12557;DHT22;6344;49.932;8.308;2023-11-21T05:55:05;8.50;99.90
12557;DHT22;6344;49.932;8.308;2023-11-21T05:57:34;8.50;99.90
12557;DHT22;6344;49.932;8.308;2023-11-21T06:00:03;8.50;99.90
12557;DHT22;6344;49.932;8.308;2023-11-21T06:02:36;8.50;99.90
12557;DHT22;6344;49.932;8.308;2023-11-21T06:05:04;8.50;99.90
12557;DHT22;6344;49.932;8.308;2023-11-21T06:07:32;8.50;99.90
12557;DHT22;6344;49.932;8.308;2023-11-21T06:09:58;8.40;99.90
12557;DHT22;6344;49.932;8.308;2023-11-21T06:12:26;8.50;99.90
12557;DHT22;6344;49.932;8.308;2023-11-21T06:14:53;8.40;99.90
12557;DHT22;6344;49.932;8.308;2023-11-21T06:17:21;8.40;99.90
12557;DHT22;6344;49.932;8.308;2023-11-21T06:19:50;8.40;99.90
12557;DHT22;6344;49.932;8.308;2023-11-21T06:22:18;8.40;99.90
12557;DHT22;6344;49.932;8.308;2023-11-21T06:24:46;8.40;99.90
12557;DHT22;6344;49.932;8.308;2023-11-21T06:27:13;8.40;99.90
12557;DHT22;6344;49.932;8.308;2023-11-21T06:29:39;8.40;99.90
12557;DHT22;6344;49.932;8.308;2023-11-21T06:32:07;8.40;99.90
12557;DHT22;6344;49.932;8.308;2023-11-21T06:34:34;8.40;99.90
12557;DHT22;6344;49.932;8.308;2023-11-21T06:37:01;8.40;99.90
12557;DHT22;6344;49.932;8.308;2023-11-21T06:39:27;8.40;99.90
12557;DHT22;6344;49.932;8.308;2023-11-21T06:41:56;8.40;99.90
12557;DHT22;6344;49.932;8.308;2023-11-21T06:44:22;8.40;99.90
12557;DHT22;6344;49.932;8.308;2023-11-21T06:46:49;8.40;99.90
12557;DHT22;6344;49.932;8.308;2023-11-21T06:49:17;8.40;99.90
12557;DHT22;6344;49.932;8.308;2023-11-21T06:51:43;8.40;99.90
12557;DHT22;6344;49.932;8.308;2023-11-21T06:54:10;8.40;99.90
12557;DHT22;6344;49.932;8.308;2023-11-21T06:56:37;8.40;99.90
12557;DHT22;6344;49.932;8.308;2023-11-21T06:59:05;8.40;99.90
12557;DHT22;6344;49.932;8.308;2023-11-21T07:01:32;8.40;99.90
12557;DHT22;6344;49.932;8.308;2023-11-21T07:04:04;8.40;99.90
12557;DHT22;6344;49.932;8.308;2023-11-21T07:06:31;8.50;99.90
12557;DHT22;6344;49.932;8.308;2023-11-21T07:08:58;8.50;99.90
12557;DHT22;6344;49.932;8.308;2023-11-21T07:11:25;8.50;99.90
12557;DHT22;6344;49.932;8.308;2023-11-21T07:13:52;8.60;99.90
12557;DHT22;6344;49.932;8.308;2023-11-21T07:16:20;8.60;99.90
12557;DHT22;6344;49.932;8.308;2023-11-21T07:18:47;8.60;99.90
12557;DHT22;6344;49.932;8.308;2023-11-21T07:21:14;8.60;99.90
12557;DHT22;6344;49.932;8.308;2023-11-21T07:23:41;8.60;99.90
12557;DHT22;6344;49.932;8.308;2023-11-21T07:26:08;8.60;99.90
12557;DHT22;6344;49.932;8.308;2023-11-21T07:28:36;8.60;99.90
12557;DHT22;6344;49.932;8.308;2023-11-21T07:31:03;8.60;99.90
12557;DHT22;6344;49.932;8.308;2023-11-21T07:33:31;8.60;99.90
12557;DHT22;6344;49.932;8.308;2023-11-21T07:35:57;8.70;99.90
12557;DHT22;6344;49.932;8.308;2023-11-21T07:38:24;8.70;99.90
12557;DHT22;6344;49.932;8.308;2023-11-21T07:40:51;8.70;99.90
12557;DHT22;6344;49.932;8.308;2023-11-21T07:43:17;8.70;99.90
12557;DHT22;6344;49.932;8.308;2023-11-21T07:45:45;8.70;99.90
12557;DHT22;6344;49.932;8.308;2023-11-21T07:48:11;8.70;99.90
12557;DHT22;6344;49.932;8.308;2023-11-21T07:50:39;8.80;99.90
12557;DHT22;6344;49.932;8.308;2023-11-21T07:53:06;8.80;99.90
12557;DHT22;6344;49.932;8.308;2023-11-21T07:55:32;8.90;99.90
12557;DHT22;6344;49.932;8.308;2023-11-21T07:57:59;8.90;99.90
12557;DHT22;6344;49.932;8.308;2023-11-21T08:00:26;8.90;99.90
12557;DHT22;6344;49.932;8.308;2023-11-21T08:02:55;9.00;99.90
12557;DHT22;6344;49.932;8.308;2023-11-21T08:05:22;9.00;99.90
12557;DHT22;6344;49.932;8.308;2023-11-21T08:07:50;9.10;99.90
12557;DHT22;6344;49.932;8.308;2023-11-21T08:10:16;9.10;99.90
12557;DHT22;6344;49.932;8.308;2023-11-21T08:12:43;9.10;99.90
12557;DHT22;6344;49.932;8.308;2023-11-21T08:15:10;9.10;99.90
12557;DHT22;6344;49.932;8.308;2023-11-21T08:17:36;9.20;99.90
12557;DHT22;6344;49.932;8.308;2023-11-21T08:20:05;9.20;99.90
12557;DHT22;6344;49.932;8.308;2023-11-21T08:22:34;9.20;99.90
12557;DHT22;6344;49.932;8.308;2023-11-21T08:25:02;9.20;99.90
12557;DHT22;6344;49.932;8.308;2023-11-21T08:27:30;9.20;99.90
12557;DHT22;6344;49.932;8.308;2023-11-21T08:29:56;9.20;99.90
12557;DHT22;6344;49.932;8.308;2023-11-21T08:32:23;9.30;99.90
12557;DHT22;6344;49.932;8.308;2023-11-21T08:34:50;9.30;99.90
12557;DHT22;6344;49.932;8.308;2023-11-21T08:37:17;9.30;99.90
12557;DHT22;6344;49.932;8.308;2023-11-21T08:39:44;9.20;99.90
12557;DHT22;6344;49.932;8.308;2023-11-21T08:42:12;9.20;99.90
12557;DHT22;6344;49.932;8.308;2023-11-21T08:44:38;9.30;99.90
12557;DHT22;6344;49.932;8.308;2023-11-21T08:47:05;9.30;99.90
12557;DHT22;6344;49.932;8.308;2023-11-21T08:49:32;9.40;99.90
12557;DHT22;6344;49.932;8.308;2023-11-21T08:51:58;9.50;99.90
12557;DHT22;6344;49.932;8.308;2023-11-21T08:54:25;9.50;99.90
12557;DHT22;6344;49.932;8.308;2023-11-21T08:56:52;9.50;99.90
12557;DHT22;6344;49.932;8.308;2023-11-21T08:59:21;9.50;99.90
12557;DHT22;6344;49.932;8.308;2023-11-21T09:01:48;9.50;99.90
12557;DHT22;6344;49.932;8.308;2023-11-21T09:04:14;9.50;99.90
12557;DHT22;6344;49.932;8.308;2023-11-21T09:06:41;9.60;99.90
12557;DHT22;6344;49.932;8.308;2023-11-21T09:09:08;9.60;99.90
12557;DHT22;6344;49.932;8.308;2023-11-21T09:11:35;9.40;99.90
12557;DHT22;6344;49.932;8.308;2023-11-21T09:14:02;9.50;99.90
12557;DHT22;6344;49.932;8.308;2023-11-21T09:16:30;9.50;99.90
12557;DHT22;6344;49.932;8.308;2023-11-21T09:18:57;9.60;99.90
12557;DHT22;6344;49.932;8.308;2023-11-21T09:21:24;9.60;99.90
12557;DHT22;6344;49.932;8.308;2023-11-21T09:23:51;9.70;99.90
12557;DHT22;6344;49.932;8.308;2023-11-21T09:26:18;9.70;99.90
12557;DHT22;6344;49.932;8.308;2023-11-21T09:28:45;9.80;99.90
12557;DHT22;6344;49.932;8.308;2023-11-21T09:31:13;9.70;99.90
12557;DHT22;6344;49.932;8.308;2023-11-21T09:33:42;9.60;99.90
12557;DHT22;6344;49.932;8.308;2023-11-21T09:36:11;9.70;99.90
12557;DHT22;6344;49.932;8.308;2023-11-21T09:38:39;9.70;99.90
12557;DHT22;6344;49.932;8.308;2023-11-21T09:41:11;9.70;99.90
12557;DHT22;6344;49.932;8.308;2023-11-21T09:43:43;9.90;99.90
12557;DHT22;6344;49.932;8.308;2023-11-21T09:46:12;9.70;99.90
12557;DHT22;6344;49.932;8.308;2023-11-21T09:48:48;9.80;99.90
12557;DHT22;6344;49.932;8.308;2023-11-21T09:51:19;9.80;99.90
12557;DHT22;6344;49.932;8.308;2023-11-21T09:53:48;10.00;99.90
12557;DHT22;6344;49.932;8.308;2023-11-21T09:56:17;10.10;99.90
12557;DHT22;6344;49.932;8.308;2023-11-21T09:58:51;10.10;99.90
12557;DHT22;6344;49.932;8.308;2023-11-21T10:01:18;10.10;99.90
12557;DHT22;6344;49.932;8.308;2023-11-21T10:03:47;10.10;99.90
12557;DHT22;6344;49.932;8.308;2023-11-21T10:06:14;10.00;99.90
12557;DHT22;6344;49.932;8.308;2023-11-21T10:08:43;10.20;99.90
12557;DHT22;6344;49.932;8.308;2023-11-21T10:11:11;10.00;99.90
12557;DHT22;6344;49.932;8.308;2023-11-21T10:13:40;10.10;99.90
12557;DHT22;6344;49.932;8.308;2023-11-21T10:16:09;10.30;99.90
12557;DHT22;6344;49.932;8.308;2023-11-21T10:18:39;10.20;99.90
12557;DHT22;6344;49.932;8.308;2023-11-21T10:21:08;10.10;99.90
12557;DHT22;6344;49.932;8.308;2023-11-21T10:23:34;10.00;99.90
12557;DHT22;6344;49.932;8.308;2023-11-21T10:26:01;10.10;99.90
12557;DHT22;6344;49.932;8.308;2023-11-21T10:28:28;10.20;99.90
12557;DHT22;6344;49.932;8.308;2023-11-21T10:30:56;10.20;99.90
12557;DHT22;6344;49.932;8.308;2023-11-21T10:33:27;10.30;99.90
12557;DHT22;6344;49.932;8.308;2023-11-21T10:35:54;10.30;99.90
12557;DHT22;6344;49.932;8.308;2023-11-21T10:38:22;10.30;99.90
12557;DHT22;6344;49.932;8.308;2023-11-21T10:40:51;10.30;99.90
12557;DHT22;6344;49.932;8.308;2023-11-21T10:43:21;10.30;99.90
12557;DHT22;6344;49.932;8.308;2023-11-21T10:45:50;10.40;99.90
12557;DHT22;6344;49.932;8.308;2023-11-21T10:48:17;10.60;99.90
12557;DHT22;6344;49.932;8.308;2023-11-21T10:50:46;10.40;99.90
12557;DHT22;6344;49.932;8.308;2023-11-21T10:53:13;10.70;99.90
12557;DHT22;6344;49.932;8.308;2023-11-21T10:55:41;10.60;99.90
12557;DHT22;6344;49.932;8.308;2023-11-21T10:58:10;10.80;99.90
12557;DHT22;6344;49.932;8.308;2023-11-21T11:00:40;10.80;99.90
12557;DHT22;6344;49.932;8.308;2023-11-21T11:03:06;11.00;99.90
12557;DHT22;6344;49.932;8.308;2023-11-21T11:05:40;11.30;99.90
12557;DHT22;6344;49.932;8.308;2023-11-21T11:08:08;11.20;99.90
12557;DHT22;6344;49.932;8.308;2023-11-21T11:10:38;11.10;99.90
12557;DHT22;6344;49.932;8.308;2023-11-21T11:13:07;11.20;99.90
12557;DHT22;6344;49.932;8.308;2023-11-21T11:15:34;11.00;99.90
12557;DHT22;6344;49.932;8.308;2023-11-21T11:18:01;11.10;99.90
12557;DHT22;6344;49.932;8.308;2023-11-21T11:20:34;11.30;99.90
12557;DHT22;6344;49.932;8.308;2023-11-21T11:23:16;11.10;99.90
12557;DHT22;6344;49.932;8.308;2023-11-21T11:25:58;11.40;99.90
12557;DHT22;6344;49.932;8.308;2023-11-21T11:28:35;11.10;99.90
12557;DHT22;6344;49.932;8.308;2023-11-21T11:31:08;10.80;99.90
12557;DHT22;6344;49.932;8.308;2023-11-21T11:33:41;11.30;99.90
12557;DHT22;6344;49.932;8.308;2023-11-21T11:36:15;11.20;99.90
12557;DHT22;6344;49.932;8.308;2023-11-21T11:38:46;11.30;99.90
12557;DHT22;6344;49.932;8.308;2023-11-21T11:41:24;11.40;99.90
12557;DHT22;6344;49.932;8.308;2023-11-21T11:43:53;11.30;99.90
12557;DHT22;6344;49.932;8.308;2023-11-21T11:46:19;11.30;99.90
12557;DHT22;6344;49.932;8.308;2023-11-21T11:48:48;11.10;99.90
12557;DHT22;6344;49.932;8.308;2023-11-21T11:51:15;11.30;99.90
12557;DHT22;6344;49.932;8.308;2023-11-21T11:53:46;11.30;99.90
12557;DHT22;6344;49.932;8.308;2023-11-21T11:56:25;11.20;99.90
12557;DHT22;6344;49.932;8.308;2023-11-21T11:58:55;11.80;99.90
12557;DHT22;6344;49.932;8.308;2023-11-21T12:01:24;12.00;99.90
12557;DHT22;6344;49.932;8.308;2023-11-21T12:07:04;11.90;99.90
12557;DHT22;6344;49.932;8.308;2023-11-21T12:09:32;12.20;99.90
12557;DHT22;6344;49.932;8.308;2023-11-21T12:11:59;12.10;99.90
12557;DHT22;6344;49.932;8.308;2023-11-21T12:14:27;11.50;99.90
12557;DHT22;6344;49.932;8.308;2023-11-21T12:16:54;11.60;99.90
12557;DHT22;6344;49.932;8.308;2023-11-21T12:19:21;11.90;99.90
12557;DHT22;6344;49.932;8.308;2023-11-21T12:21:49;11.70;99.90
12557;DHT22;6344;49.932;8.308;2023-11-21T12:24:16;11.70;99.90
12557;DHT22;6344;49.932;8.308;2023-11-21T12:26:43;11.60;99.90
12557;DHT22;6344;49.932;8.308;2023-11-21T12:29:10;11.80;99.90
12557;DHT22;6344;49.932;8.308;2023-11-21T12:31:38;11.60;99.90
12557;DHT22;6344;49.932;8.308;2023-11-21T12:34:06;11.60;99.90
12557;DHT22;6344;49.932;8.308;2023-11-21T12:36:34;11.60;99.90
12557;DHT22;6344;49.932;8.308;2023-11-21T12:39:02;11.60;99.90
12557;DHT22;6344;49.932;8.308;2023-11-21T12:41:29;11.70;99.90
12557;DHT22;6344;49.932;8.308;2023-11-21T12:43:56;11.70;99.90
12557;DHT22;6344;49.932;8.308;2023-11-21T12:46:23;11.50;99.90
12557;DHT22;6344;49.932;8.308;2023-11-21T12:48:55;11.30;99.90
12557;DHT22;6344;49.932;8.308;2023-11-21T12:51:22;11.30;99.90
12557;DHT22;6344;49.932;8.308;2023-11-21T12:53:49;11.30;99.90
12557;DHT22;6344;49.932;8.308;2023-11-21T12:56:16;11.20;99.90
12557;DHT22;6344;49.932;8.308;2023-11-21T12:58:45;11.30;99.90
12557;DHT22;6344;49.932;8.308;2023-11-21T13:01:13;11.10;99.90
12557;DHT22;6344;49.932;8.308;2023-11-21T13:03:45;11.00;99.90
12557;DHT22;6344;49.932;8.308;2023-11-21T13:06:15;11.10;99.90
12557;DHT22;6344;49.932;8.308;2023-11-21T13:08:41;11.10;99.90
12557;DHT22;6344;49.932;8.308;2023-11-21T13:11:11;11.00;99.90
12557;DHT22;6344;49.932;8.308;2023-11-21T13:13:40;10.90;99.90
12557;DHT22;6344;49.932;8.308;2023-11-21T13:16:08;10.90;99.90
12557;DHT22;6344;49.932;8.308;2023-11-21T13:18:35;10.90;99.90
12557;DHT22;6344;49.932;8.308;2023-11-21T13:21:04;10.90;99.90
12557;DHT22;6344;49.932;8.308;2023-11-21T13:23:37;10.90;99.90
12557;DHT22;6344;49.932;8.308;2023-11-21T13:26:04;10.80;99.90
12557;DHT22;6344;49.932;8.308;2023-11-21T13:28:31;10.70;99.90
12557;DHT22;6344;49.932;8.308;2023-11-21T13:30:58;10.80;99.90
12557;DHT22;6344;49.932;8.308;2023-11-21T13:33:28;10.80;99.90
12557;DHT22;6344;49.932;8.308;2023-11-21T13:35:55;10.70;99.90
12557;DHT22;6344;49.932;8.308;2023-11-21T13:38:23;10.70;99.90
12557;DHT22;6344;49.932;8.308;2023-11-21T13:40:52;10.70;99.90
12557;DHT22;6344;49.932;8.308;2023-11-21T13:43:21;10.50;99.90
12557;DHT22;6344;49.932;8.308;2023-11-21T13:45:50;10.50;99.90
12557;DHT22;6344;49.932;8.308;2023-11-21T13:48:21;10.50;99.90
12557;DHT22;6344;49.932;8.308;2023-11-21T13:50:57;10.50;99.90
12557;DHT22;6344;49.932;8.308;2023-11-21T13:53:27;10.50;99.90
12557;DHT22;6344;49.932;8.308;2023-11-21T13:55:55;10.50;99.90
12557;DHT22;6344;49.932;8.308;2023-11-21T13:58:23;10.50;99.90
12557;DHT22;6344;49.932;8.308;2023-11-21T14:01:00;10.50;99.90
12557;DHT22;6344;49.932;8.308;2023-11-21T14:03:31;10.60;99.90
12557;DHT22;6344;49.932;8.308;2023-11-21T14:06:05;10.60;99.90
12557;DHT22;6344;49.932;8.308;2023-11-21T14:08:39;10.90;99.90
12557;DHT22;6344;49.932;8.308;2023-11-21T14:11:08;10.90;99.90
12557;DHT22;6344;49.932;8.308;2023-11-21T14:13:36;10.90;99.90
12557;DHT22;6344;49.932;8.308;2023-11-21T14:16:03;11.00;99.90
12557;DHT22;6344;49.932;8.308;2023-11-21T14:18:32;11.10;99.90
12557;DHT22;6344;49.932;8.308;2023-11-21T14:21:04;11.30;99.90
12557;DHT22;6344;49.932;8.308;2023-11-21T14:23:31;11.00;99.90
12557;DHT22;6344;49.932;8.308;2023-11-21T14:26:00;11.00;99.90
12557;DHT22;6344;49.932;8.308;2023-11-21T14:28:28;11.10;99.90
12557;DHT22;6344;49.932;8.308;2023-11-21T14:30:54;11.10;99.90
12557;DHT22;6344;49.932;8.308;2023-11-21T14:33:21;11.00;99.90
12557;DHT22;6344;49.932;8.308;2023-11-21T14:35:48;11.00;99.90
12557;DHT22;6344;49.932;8.308;2023-11-21T14:38:15;10.90;99.90
12557;DHT22;6344;49.932;8.308;2023-11-21T14:40:43;10.90;99.90
12557;DHT22;6344;49.932;8.308;2023-11-21T14:43:10;11.00;99.90
12557;DHT22;6344;49.932;8.308;2023-11-21T14:45:38;11.00;99.90
12557;DHT22;6344;49.932;8.308;2023-11-21T14:48:05;10.90;99.90
12557;DHT22;6344;49.932;8.308;2023-11-21T14:50:34;10.90;99.90
12557;DHT22;6344;49.932;8.308;2023-11-21T14:53:09;10.90;99.90
12557;DHT22;6344;49.932;8.308;2023-11-21T14:55:38;10.80;99.90
12557;DHT22;6344;49.932;8.308;2023-11-21T14:58:18;10.70;99.90
12557;DHT22;6344;49.932;8.308;2023-11-21T15:00:53;10.60;99.90
12557;DHT22;6344;49.932;8.308;2023-11-21T15:03:23;10.60;99.90
12557;DHT22;6344;49.932;8.308;2023-11-21T15:06:08;10.50;99.90
12557;DHT22;6344;49.932;8.308;2023-11-21T15:08:56;10.40;99.90
12557;DHT22;6344;49.932;8.308;2023-11-21T15:11:53;10.50;99.90
12557;DHT22;6344;49.932;8.308;2023-11-21T15:14:25;10.40;99.90
12557;DHT22;6344;49.932;8.308;2023-11-21T15:16:58;10.40;99.90
12557;DHT22;6344;49.932;8.308;2023-11-21T15:19:25;10.30;99.90
12557;DHT22;6344;49.932;8.308;2023-11-21T15:21:53;10.30;99.90
12557;DHT22;6344;49.932;8.308;2023-11-21T15:24:20;10.30;99.90
12557;DHT22;6344;49.932;8.308;2023-11-21T15:26:47;10.20;99.90
12557;DHT22;6344;49.932;8.308;2023-11-21T15:29:13;10.20;99.90
12557;DHT22;6344;49.932;8.308;2023-11-21T15:31:40;10.20;99.90
12557;DHT22;6344;49.932;8.308;2023-11-21T15:34:12;10.20;99.90
12557;DHT22;6344;49.932;8.308;2023-11-21T15:36:39;10.20;99.90
12557;DHT22;6344;49.932;8.308;2023-11-21T15:39:06;10.10;99.90
12557;DHT22;6344;49.932;8.308;2023-11-21T15:41:35;10.10;99.90
12557;DHT22;6344;49.932;8.308;2023-11-21T15:44:04;10.10;99.90
12557;DHT22;6344;49.932;8.308;2023-11-21T15:46:34;10.00;99.90
12557;DHT22;6344;49.932;8.308;2023-11-21T15:49:01;10.10;99.90
12557;DHT22;6344;49.932;8.308;2023-11-21T15:51:31;10.10;99.90
12557;DHT22;6344;49.932;8.308;2023-11-21T15:53:57;10.10;99.90
12557;DHT22;6344;49.932;8.308;2023-11-21T15:56:24;10.10;99.90
12557;DHT22;6344;49.932;8.308;2023-11-21T15:58:51;10.20;99.90
12557;DHT22;6344;49.932;8.308;2023-11-21T16:01:17;10.10;99.90
12557;DHT22;6344;49.932;8.308;2023-11-21T16:03:45;10.10;99.90